SBCGSBCY

Guest
Details From SBCG - Campo Grande
To SBCY - Marechal Rondon
Flight Number -
Tags generated
Created
Modified
Stats Distance 301 nm / 557 km
Max Altitude 24,500 ft / 7,468 m
Waypoints 6
Social Downloads 2
Likes 0
Share VATSIM

Download

Looking for another format? Having issues loading an existing format? Contact us
Advertisement - Login to hide

Notes

Basic altitude profile: - Ascent Rate: 2500ft/min - Ascent Speed: 250kts - Cruise Altitude: 35000ft - Cruise Speed: 420kts - Descent Rate: 1500ft/min - Descent Speed: 250kts Options: - Use NATs: yes - Use PACOTS: yes - Use low airways: yes - Use high airways: yes

Route

SBCG INASU A430 CIA SBCY

ID Type Via Altitude Latitude Longitude Leg Dist Tot Dist Heading (true) Name
O SBCG APT - 0 ft / 0 m -20.46867˚ -54.67250˚ - 0 nm - Campo Grande
INASU FIX - 14,300 ft / 4,359 m -19.82617˚ -54.86800˚ 40 nm 40 nm 344° / 344° -
TOSAR FIX A430 (AWY-LO) 24,500 ft / 7,468 m -17.65067˚ -55.52450˚ 135 nm 176 nm 344° / 344° -
NEKET FIX A430 (AWY-LO) 8,600 ft / 2,621 m -16.30017˚ -55.92367˚ 84 nm 260 nm 344° / 344° -
CIA VOR A430 (AWY-LO) 4,500 ft / 1,372 m -15.65617˚ -56.11200˚ 40 nm 300 nm 344° / 344° CUIABA VOR-DME
O SBCY APT - 0 ft / 0 m -15.65293˚ -56.11672˚ 0 nm 300 nm 305° / 305° Marechal Rondon

Altitude Profile

Advertisement - Login to hide

Weather


0- 5 10 15 20 25 30 35+ Temperature / ° C

Clouds and Precipitation
Forecast for 2018-05-23 12:00 UTC. Updated 2 hours ago

Ground ~20,000 ft ~40,000 ft Winds

SBCG

Details ICAO SBCG (CGR)
Name Campo Grande
Region Brazil
Timezone America/Campo_Grande (UTC-4.0)
Stats Elevation 1,833 ft / 559 m (AMSL)
Location -20.468666° -54.672500°
Runways 1
Magnetic Variation 17.602° W

METAR

SBCG 231300Z 12008KT CAVOK 17/11 Q1022

Decode

TAF

TAF SBCG 230930Z 2312/2412 12007KT CAVOK TX25/2318Z TN14/2408Z RMK PER

Decode

Departure Runways

ID Width Length Bearing (true) Bearing (mag) Surface Threshold Offset Overrun Length
06 141 ft / 43 m 8,563 ft / 2,610 m 40.84° 58.44° Asphalt 0 ft / 0 m 192 ft / 59 m
24 141 ft / 43 m 8,563 ft / 2,610 m 220.83° 238.43° Asphalt 0 ft / 0 m 190 ft / 58 m

SBCY

Details ICAO SBCY (CGB)
Name Marechal Rondon
Region Brazil
Timezone America/Cuiaba (UTC-4.0)
Stats Elevation 609 ft / 186 m (AMSL)
Location -15.652930° -56.116720°
Runways 1
Magnetic Variation 17.467° W

METAR

SBCY 231300Z 14004KT CAVOK 22/13 Q1020

Decode

TAF

TAF SBCY 231000Z 2312/2412 21005KT CAVOK TX30/2318Z TN24/2408Z BECMG 2315/2317 18005KT BECMG 2322/2324 15003KT RMK PEH

Decode

Destination Runways

ID Width Length Bearing (true) Bearing (mag) Surface Threshold Offset Overrun Length
17 148 ft / 45 m 7,558 ft / 2,304 m 152.83° 170.30° Asphalt 0 ft / 0 m 190 ft / 58 m
35 148 ft / 45 m 7,558 ft / 2,304 m 332.82° 350.29° Asphalt 0 ft / 0 m 190 ft / 58 m

Approach Navaids

Runway Type Ident Frequency Range Bearing (true) Bearing (mag) Slope Elevation
35 Localiser ICB 109.30 MHz 18 nm / 33 km 333.66° 351.12° - 609 ft / 186 m (AMSL)

Popular Alternatives